Time;durP1;ratioP1;P1;durP2;ratioP2;P2;SDS_P1;SDS_P2;PMS_P1;PMS_P2;Temp;Humidity;BMP_temperature;BMP_pressure;BME280_temperature;BME280_humidity;BME280_pressure;Samples;Min_cycle;Max_cycle;Signal;HPM_P1;HPM_P2
2021/06/03 00:02:00;;;;;;;5.97;2.65;;;;;;;8.84;78.49;93854.06;5070048;28;20411;-50
2021/06/03 00:04:26;;;;;;;5.57;2.83;;;;;;;8.81;77.71;93852.38;5069872;28;20104;-51
2021/06/03 00:06:51;;;;;;;3.20;2.47;;;;;;;8.81;78.59;93853.13;5070241;28;20051;-51
2021/06/03 00:09:17;;;;;;;5.30;3.13;;;;;;;8.69;77.94;93851.09;5089972;28;20813;-52
2021/06/03 00:11:43;;;;;;;3.17;2.65;;;;;;;8.78;77.81;93851.44;5090506;28;20399;-49
2021/06/03 00:14:09;;;;;;;3.78;2.85;;;;;;;8.67;77.80;93850.88;5090466;28;20024;-50
2021/06/03 00:16:35;;;;;;;4.60;3.17;;;;;;;8.69;77.60;93853.84;5090438;28;20039;-50
2021/06/03 00:19:06;;;;;;;7.60;3.58;;;;;;;8.56;78.15;93851.81;5090329;28;20020;-50
2021/06/03 00:21:32;;;;;;;3.08;2.78;;;;;;;8.58;78.04;93848.50;5090062;28;20659;-47
2021/06/03 00:23:57;;;;;;;6.13;3.35;;;;;;;8.47;78.12;93849.44;5090111;28;20054;-48
2021/06/03 00:26:23;;;;;;;8.25;3.05;;;;;;;8.21;78.29;93846.59;5090314;28;20028;-47
2021/06/03 00:28:48;;;;;;;4.90;3.40;;;;;;;8.39;77.54;93845.84;5090295;28;20028;-47
2021/06/03 00:31:14;;;;;;;4.90;4.03;;;;;;;8.46;76.83;93850.72;5089601;28;20492;-45
2021/06/03 00:33:40;;;;;;;4.13;3.83;;;;;;;8.21;77.48;93852.84;5090314;28;20043;-46
2021/06/03 00:36:05;;;;;;;5.80;4.72;;;;;;;8.26;77.10;93854.03;5075019;28;20054;-46
2021/06/03 00:38:31;;;;;;;6.53;3.33;;;;;;;8.09;77.52;93853.53;5068498;28;20107;-47
2021/06/03 00:40:56;;;;;;;5.28;4.18;;;;;;;8.14;76.62;93855.47;5070095;28;20495;-47
2021/06/03 00:43:22;;;;;;;8.80;2.95;;;;;;;8.03;76.89;93856.38;5068371;28;20531;-45
2021/06/03 00:45:48;;;;;;;4.07;2.60;;;;;;;8.03;76.79;93852.88;5078344;28;20032;-46
2021/06/03 00:48:13;;;;;;;2.47;2.05;;;;;;;8.01;76.80;93856.13;5090103;28;20089;-50
2021/06/03 00:50:47;;;;;;;2.08;1.88;;;;;;;8.16;75.84;93855.69;5089886;28;20495;-50
2021/06/03 00:53:13;;;;;;;2.72;2.53;;;;;;;8.17;75.74;93859.91;5090127;28;20020;-49
2021/06/03 00:55:42;;;;;;;2.05;1.60;;;;;;;8.13;76.11;93862.97;5090161;28;20035;-47
2021/06/03 00:58:08;;;;;;;2.83;1.75;;;;;;;8.03;76.79;93867.38;5089826;28;20499;-49
2021/06/03 01:00:34;;;;;;;2.80;2.28;;;;;;;7.93;77.30;93849.00;5090000;28;20031;-47
2021/06/03 01:02:59;;;;;;;2.33;1.73;;;;;;;7.82;78.67;93865.69;5090056;28;20020;-47
2021/06/03 01:05:36;;;;;;;4.10;2.20;;;;;;;7.69;78.59;93857.38;5089675;28;20094;-49
2021/06/03 01:08:03;;;;;;;4.20;2.00;;;;;;;7.62;78.75;93858.69;5089524;28;20101;-47
2021/06/03 01:10:32;;;;;;;12.57;2.45;;;;;;;7.60;79.35;93861.22;5090429;28;20032;-47
2021/06/03 01:13:03;;;;;;;3.55;2.42;;;;;;;7.58;80.18;93861.72;5093721;28;20036;-48
2021/06/03 01:15:29;;;;;;;1.63;1.50;;;;;;;7.73;79.80;93852.31;5093531;28;20035;-50
2021/06/03 01:17:55;;;;;;;3.25;2.15;;;;;;;7.64;79.69;93867.16;5092292;28;20115;-47
2021/06/03 01:20:21;;;;;;;1.92;1.80;;;;;;;7.46;79.94;93863.13;5093163;28;20024;-49
2021/06/03 01:23:24;;;;;;;3.03;2.30;;;;;;;7.56;79.77;93856.00;5093147;28;20020;-49
2021/06/03 01:25:50;;;;;;;1.83;1.73;;;;;;;7.38;79.01;93836.78;5092423;28;20044;-48
2021/06/03 01:28:16;;;;;;;2.97;2.38;;;;;;;7.47;79.01;93847.41;5092923;28;20073;-50
2021/06/03 01:30:45;;;;;;;1.58;1.40;;;;;;;7.59;78.85;93863.22;5091761;28;20149;-47
2021/06/03 01:33:15;;;;;;;;;;;;;;;7.61;78.82;93859.94;5092279;28;20107;-48
2021/06/03 01:35:45;;;;;;;3.95;2.25;;;;;;;7.59;79.01;93865.22;5093480;28;19908;-50
2021/06/03 01:38:13;;;;;;;1.77;1.67;;;;;;;7.58;79.30;93861.72;5092830;28;20020;-48
2021/06/03 01:40:40;;;;;;;2.90;2.28;;;;;;;7.51;79.87;93869.81;5092762;28;20521;-52
2021/06/03 01:43:07;;;;;;;5.38;1.73;;;;;;;7.49;80.46;93861.38;5073873;28;20032;-53
2021/06/03 01:45:33;;;;;;;3.03;1.67;;;;;;;7.63;80.17;93860.91;5072362;28;20036;-49
2021/06/03 01:47:59;;;;;;;1.63;1.50;;;;;;;7.57;80.59;93854.75;5072382;28;20089;-48
2021/06/03 01:50:25;;;;;;;1.95;1.65;;;;;;;7.61;80.41;93851.69;5072282;28;20035;-51
2021/06/03 01:52:50;;;;;;;1.20;1.10;;;;;;;7.69;79.73;93854.63;5071435;28;20025;-48
2021/06/03 01:55:17;;;;;;;2.13;1.92;;;;;;;7.55;80.06;93864.78;5072369;28;20016;-47
2021/06/03 01:57:44;;;;;;;2.38;1.60;;;;;;;7.43;79.79;93863.41;5072183;28;20074;-49
2021/06/03 02:00:11;;;;;;;2.22;1.23;;;;;;;7.37;80.18;93858.00;5071023;28;20020;-49
2021/06/03 02:02:36;;;;;;;2.53;2.30;;;;;;;7.42;79.31;93862.69;5072042;28;20552;-48
2021/06/03 02:05:03;;;;;;;3.78;2.58;;;;;;;7.57;78.68;93865.00;5071780;28;20040;-50
2021/06/03 02:07:29;;;;;;;4.15;1.90;;;;;;;7.47;78.67;93872.13;5076908;28;20083;-49
2021/06/03 02:09:54;;;;;;;3.75;2.33;;;;;;;7.49;78.91;93866.84;5092447;28;20480;-49
2021/06/03 02:12:20;;;;;;;8.30;2.22;;;;;;;7.42;79.09;93865.44;5092092;28;20507;-52
2021/06/03 02:14:48;;;;;;;2.47;2.28;;;;;;;7.39;79.69;93865.72;5090853;28;20417;-52
2021/06/03 02:17:22;;;;;;;4.15;2.53;;;;;;;7.42;80.08;93873.69;5091050;28;20023;-48
2021/06/03 02:20:09;;;;;;;2.65;1.92;;;;;;;7.56;80.00;93872.50;5091055;28;20110;-52
2021/06/03 02:22:36;;;;;;;1.40;1.30;;;;;;;7.54;80.03;93871.53;5091675;28;20097;-52
2021/06/03 02:25:06;;;;;;;1.85;1.55;;;;;;;7.61;79.41;93865.44;5090965;28;20030;-52
2021/06/03 02:27:31;;;;;;;1.83;1.73;;;;;;;7.60;79.15;93875.69;5091764;28;20020;-49
2021/06/03 02:29:57;;;;;;;1.98;1.88;;;;;;;7.51;79.44;93878.06;5090600;28;20047;-52
2021/06/03 02:32:22;;;;;;;8.50;2.10;;;;;;;7.49;79.44;93872.34;5090510;28;20016;-49
2021/06/03 02:34:49;;;;;;;1.65;1.48;;;;;;;7.52;78.82;93865.81;5090777;28;20024;-49
2021/06/03 02:37:15;;;;;;;2.50;1.27;;;;;;;7.57;78.72;93876.00;5091613;28;20102;-49
2021/06/03 02:39:41;;;;;;;1.85;1.67;;;;;;;7.44;78.84;93881.41;5071282;28;20029;-49
2021/06/03 02:42:08;;;;;;;1.10;1.02;;;;;;;7.44;79.03;93876.66;5071315;28;20516;-46
2021/06/03 02:44:35;;;;;;;1.40;1.30;;;;;;;7.52;80.07;93871.28;5071187;28;20030;-51
2021/06/03 02:47:01;;;;;;;1.73;1.58;;;;;;;7.28;79.71;93839.13;5071412;28;20031;-47
2021/06/03 02:49:26;;;;;;;1.55;1.45;;;;;;;7.50;79.90;93869.06;5071399;28;20416;-46
2021/06/03 02:51:51;;;;;;;5.30;1.80;;;;;;;7.42;79.79;93870.94;5071380;28;20506;-46
2021/06/03 02:54:17;;;;;;;1.77;1.48;;;;;;;7.39;79.11;93880.19;5071344;28;20033;-47
2021/06/03 02:56:42;;;;;;;1.63;1.10;;;;;;;7.44;78.64;93870.41;5071292;28;20389;-48
2021/06/03 02:59:08;;;;;;;3.08;1.98;;;;;;;7.41;79.25;93872.19;5071161;28;20400;-48
2021/06/03 03:01:33;;;;;;;1.42;1.20;;;;;;;7.40;78.87;93881.69;5070895;28;20025;-49
2021/06/03 03:03:59;;;;;;;0.80;0.77;;;;;;;7.43;79.27;93880.66;5070914;28;20025;-48
2021/06/03 03:06:24;;;;;;;2.00;1.27;;;;;;;7.40;78.77;93876.19;5070625;28;20056;-50
2021/06/03 03:08:50;;;;;;;1.73;1.60;;;;;;;7.40;79.06;93880.94;5070654;28;20039;-51
2021/06/03 03:11:15;;;;;;;2.22;2.05;;;;;;;7.41;78.84;93872.19;5070891;28;20508;-51
2021/06/03 03:13:40;;;;;;;15.35;1.52;;;;;;;7.27;79.23;93887.09;5070982;28;20021;-49
2021/06/03 03:16:06;;;;;;;1.92;1.52;;;;;;;7.14;79.90;93884.25;5070894;28;20499;-50
2021/06/03 03:18:31;;;;;;;1.75;1.40;;;;;;;6.95;79.80;93886.19;5070939;28;20084;-50
2021/06/03 03:20:57;;;;;;;1.42;1.33;;;;;;;6.80;78.76;93886.56;5070827;28;20024;-48
2021/06/03 03:23:23;;;;;;;1.50;1.38;;;;;;;6.81;78.74;93896.31;5070711;28;20043;-47
2021/06/03 03:25:48;;;;;;;9.00;1.40;;;;;;;6.86;78.42;93894.75;5070541;28;20487;-49
2021/06/03 03:28:14;;;;;;;1.40;1.30;;;;;;;6.76;78.63;93902.56;5070701;28;20028;-49
2021/06/03 03:30:41;;;;;;;1.35;1.25;;;;;;;6.85;78.12;93893.25;5070816;28;20066;-48
2021/06/03 03:33:11;;;;;;;2.95;1.27;;;;;;;6.79;78.28;93898.06;5069940;28;20404;-43
2021/06/03 03:35:37;;;;;;;1.92;1.30;;;;;;;6.67;78.87;93893.94;5081392;28;20035;-49
2021/06/03 03:38:03;;;;;;;2.13;1.92;;;;;;;6.73;78.07;93878.19;5090642;28;20016;-53
2021/06/03 03:40:29;;;;;;;1.83;1.50;;;;;;;6.91;78.09;93887.72;5090892;28;20031;-50
2021/06/03 03:42:54;;;;;;;1.42;1.33;;;;;;;6.80;78.60;93894.06;5090568;28;20027;-46
2021/06/03 03:45:22;;;;;;;4.20;1.35;;;;;;;6.75;79.14;93895.63;5090484;28;20062;-49
2021/06/03 03:47:47;;;;;;;1.75;1.65;;;;;;;6.77;79.80;93897.84;5090739;28;20530;-46
2021/06/03 03:50:14;;;;;;;3.08;2.42;;;;;;;6.79;79.20;93890.59;5088200;28;20103;-48
2021/06/03 03:52:41;;;;;;;3.25;1.75;;;;;;;6.98;79.28;93896.13;5072530;28;20035;-46
2021/06/03 03:55:08;;;;;;;2.35;1.48;;;;;;;7.10;78.98;93908.50;5070345;28;20415;-46
2021/06/03 03:57:34;;;;;;;4.50;2.38;;;;;;;7.17;77.49;93907.19;5068826;28;20024;-48
2021/06/03 03:59:59;;;;;;;7.20;2.90;;;;;;;7.13;78.09;93915.69;5068575;28;20056;-47
2021/06/03 04:02:25;;;;;;;4.07;2.70;;;;;;;7.19;78.00;93912.91;5068711;28;20047;-46
2021/06/03 04:04:50;;;;;;;3.38;2.38;;;;;;;7.15;78.36;93915.16;5068203;28;20040;-50
2021/06/03 04:07:16;;;;;;;1.75;1.65;;;;;;;7.25;78.09;93911.59;5071254;28;20066;-48
2021/06/03 04:09:41;;;;;;;3.97;3.45;;;;;;;7.22;77.97;93915.34;5089275;28;20020;-49
2021/06/03 04:12:08;;;;;;;7.13;4.00;;;;;;;7.26;77.74;93926.78;5089861;28;20024;-46
2021/06/03 04:14:34;;;;;;;3.72;3.03;;;;;;;7.32;77.66;93913.00;5090483;28;20032;-47
2021/06/03 04:16:59;;;;;;;3.88;2.85;;;;;;;7.39;77.84;93917.91;5090156;28;20020;-49
2021/06/03 04:19:25;;;;;;;5.88;2.70;;;;;;;7.31;77.51;93906.78;5090332;28;20031;-47
2021/06/03 04:21:50;;;;;;;4.90;4.18;;;;;;;7.53;77.26;93919.50;5090131;28;20415;-48
2021/06/03 04:24:16;;;;;;;3.42;2.90;;;;;;;7.45;77.57;93915.84;5090067;28;20024;-50
2021/06/03 04:26:42;;;;;;;2.25;1.83;;;;;;;7.61;77.47;93914.91;5090079;28;20035;-46
2021/06/03 04:29:08;;;;;;;4.68;2.50;;;;;;;7.76;77.38;93906.22;5089876;28;20024;-46
2021/06/03 04:31:33;;;;;;;3.78;1.90;;;;;;;7.89;77.17;93914.53;5090041;28;20101;-46
2021/06/03 04:33:59;;;;;;;2.75;1.90;;;;;;;8.02;76.94;93917.38;5089893;28;20024;-49
2021/06/03 04:36:24;;;;;;;2.17;1.98;;;;;;;8.10;76.94;93921.03;5072407;28;20024;-47
2021/06/03 04:38:50;;;;;;;7.25;2.55;;;;;;;8.32;77.24;93917.97;5070171;28;20028;-47
2021/06/03 04:41:15;;;;;;;1.90;1.75;;;;;;;8.53;77.46;93929.91;5069614;28;20461;-46
2021/06/03 04:43:43;;;;;;;4.00;3.08;;;;;;;8.64;77.45;93918.00;5069851;28;20408;-48
2021/06/03 04:46:08;;;;;;;6.63;4.00;;;;;;;8.70;77.85;93924.91;5071116;28;20029;-46
2021/06/03 04:48:34;;;;;;;3.38;2.22;;;;;;;8.83;78.41;93926.94;5073646;28;20016;-48
2021/06/03 04:50:59;;;;;;;4.22;3.78;;;;;;;8.98;78.48;93927.19;5073756;28;20495;-47
2021/06/03 04:53:25;;;;;;;8.35;3.33;;;;;;;9.04;78.36;93931.31;5073542;28;20407;-47
2021/06/03 04:55:50;;;;;;;5.13;4.28;;;;;;;9.15;78.39;93936.66;5073625;28;20024;-48
2021/06/03 04:58:16;;;;;;;5.07;3.67;;;;;;;9.16;78.65;93931.84;5073205;28;20476;-47
2021/06/03 05:00:42;;;;;;;6.40;4.13;;;;;;;9.29;78.34;93928.41;5073610;28;20024;-49
2021/06/03 05:03:09;;;;;;;5.38;3.53;;;;;;;9.40;78.01;93931.66;5072259;28;20047;-48
2021/06/03 05:05:36;;;;;;;8.95;5.35;;;;;;;9.48;77.60;93929.78;5072891;28;20543;-46
2021/06/03 05:08:03;;;;;;;6.80;4.50;;;;;;;9.63;77.93;93923.72;5082306;28;20073;-50
2021/06/03 05:10:29;;;;;;;7.78;6.05;;;;;;;9.77;77.98;93928.69;5093559;28;20407;-48
2021/06/03 05:12:55;;;;;;;15.07;9.80;;;;;;;9.95;77.46;93929.84;5093310;28;20024;-45
2021/06/03 05:15:21;;;;;;;14.48;9.27;;;;;;;9.94;77.11;93920.06;5093493;28;20020;-47
2021/06/03 05:17:47;;;;;;;8.15;5.72;;;;;;;10.03;77.18;93930.66;5093454;28;20027;-47
2021/06/03 05:20:15;;;;;;;8.88;6.65;;;;;;;9.96;77.01;93928.59;5093227;28;20023;-47
2021/06/03 05:22:41;;;;;;;12.43;8.02;;;;;;;10.09;77.30;93925.06;5093436;28;20024;-48
2021/06/03 05:25:10;;;;;;;15.00;9.18;;;;;;;10.10;78.60;93932.78;5093333;28;20400;-46
2021/06/03 05:27:36;;;;;;;6.30;5.32;;;;;;;10.39;79.34;93942.72;5093208;28;20056;-46
2021/06/03 05:30:03;;;;;;;5.40;4.20;;;;;;;10.71;79.17;93936.22;5092970;28;20024;-48
2021/06/03 05:32:29;;;;;;;3.75;2.60;;;;;;;10.77;77.90;93931.31;5092526;28;20053;-46
2021/06/03 05:34:54;;;;;;;3.88;2.42;;;;;;;11.02;76.68;93932.47;5087515;28;20020;-46
2021/06/03 05:37:19;;;;;;;2.80;2.20;;;;;;;11.11;75.31;93940.28;5072808;28;20017;-47
2021/06/03 05:39:45;;;;;;;1.85;1.75;;;;;;;11.34;74.50;93941.19;5072826;28;20017;-47
2021/06/03 05:42:11;;;;;;;16.38;2.67;;;;;;;11.56;74.17;93940.63;5072840;28;20102;-47
2021/06/03 05:44:36;;;;;;;12.68;2.75;;;;;;;11.80;74.41;93939.50;5072764;28;20100;-48
2021/06/03 05:47:02;;;;;;;2.13;1.88;;;;;;;11.91;72.57;93941.94;5072668;28;20381;-49
2021/06/03 05:49:28;;;;;;;2.63;1.80;;;;;;;12.10;72.34;93948.69;5072565;28;20458;-49
2021/06/03 05:51:54;;;;;;;2.90;2.28;;;;;;;12.42;71.47;93950.28;5072309;28;20490;-47
2021/06/03 05:54:20;;;;;;;4.25;2.72;;;;;;;12.67;68.51;93946.47;5072256;28;20492;-47
2021/06/03 05:56:45;;;;;;;4.80;2.55;;;;;;;12.76;68.44;93945.19;5072149;28;20028;-47
2021/06/03 05:59:10;;;;;;;11.13;7.30;;;;;;;12.89;67.16;93956.13;5072448;28;20020;-49
2021/06/03 06:01:36;;;;;;;2.35;2.08;;;;;;;13.21;67.27;93961.19;5072475;28;20024;-49
2021/06/03 06:06:31;;;;;;;7.72;5.22;;;;;;;13.59;64.14;93946.03;5071924;28;20041;-51
2021/06/03 06:09:04;;;;;;;22.50;10.25;;;;;;;13.67;63.36;93946.75;5071564;28;20504;-48
2021/06/03 06:11:31;;;;;;;22.17;11.27;;;;;;;13.87;62.98;93949.84;5072239;28;20024;-48
2021/06/03 06:13:57;;;;;;;40.22;21.05;;;;;;;14.02;61.98;93947.03;5071907;28;20491;-48
2021/06/03 06:16:23;;;;;;;23.05;11.60;;;;;;;14.23;61.46;93953.09;5072121;28;20020;-47
2021/06/03 06:18:48;;;;;;;11.90;6.07;;;;;;;14.39;61.00;93960.09;5071792;28;20039;-47
2021/06/03 06:21:19;;;;;;;40.70;19.20;;;;;;;14.63;60.11;93951.13;5071372;28;20033;-49
2021/06/03 06:23:45;;;;;;;5.13;3.60;;;;;;;14.74;59.69;93950.69;5071652;28;20077;-48
2021/06/03 06:26:11;;;;;;;3.72;2.38;;;;;;;14.53;59.84;93952.28;5073172;28;20028;-46
2021/06/03 06:28:37;;;;;;;5.70;4.07;;;;;;;14.68;62.47;93957.75;5091671;28;20024;-47
2021/06/03 06:31:04;;;;;;;5.70;3.45;;;;;;;14.75;61.18;93957.00;5091789;28;20059;-46
2021/06/03 06:33:30;;;;;;;2.30;2.10;;;;;;;14.82;61.21;93948.59;5091899;28;20077;-47
2021/06/03 06:35:55;;;;;;;7.65;2.47;;;;;;;15.01;60.10;93948.84;5077860;28;20032;-49
2021/06/03 06:38:22;;;;;;;3.28;2.97;;;;;;;14.91;59.80;93955.59;5071684;28;20021;-47
2021/06/03 06:40:48;;;;;;;2.75;2.17;;;;;;;14.89;59.30;93950.59;5071262;28;20245;-49
2021/06/03 06:43:14;;;;;;;8.55;2.67;;;;;;;14.96;59.25;93951.84;5071237;28;20097;-49
2021/06/03 06:45:40;;;;;;;2.08;1.88;;;;;;;15.07;59.08;93945.84;5071554;28;20016;-47
2021/06/03 06:48:08;;;;;;;3.35;2.78;;;;;;;15.16;60.15;93948.00;5071062;28;20107;-47
2021/06/03 06:50:35;;;;;;;3.45;2.40;;;;;;;15.31;59.50;93947.88;5071450;28;20032;-48
2021/06/03 06:53:01;;;;;;;4.72;3.60;;;;;;;15.38;58.88;93932.44;5071066;28;20020;-49
2021/06/03 06:55:27;;;;;;;5.72;3.33;;;;;;;15.47;58.97;93940.19;5071223;28;20646;-48
2021/06/03 06:57:54;;;;;;;6.97;3.78;;;;;;;15.62;58.73;93951.19;5071326;28;20016;-48
2021/06/03 07:00:21;;;;;;;8.55;5.10;;;;;;;15.73;57.97;93945.16;5071109;28;20024;-46
2021/06/03 07:02:47;;;;;;;3.75;2.45;;;;;;;15.41;57.45;93936.88;5069945;28;20664;-46
2021/06/03 07:05:13;;;;;;;7.28;3.38;;;;;;;15.35;57.12;93950.28;5070665;28;20043;-44
2021/06/03 07:07:39;;;;;;;4.57;2.90;;;;;;;15.32;58.01;93945.84;5076794;28;20038;-46
2021/06/03 07:10:07;;;;;;;4.38;2.28;;;;;;;15.29;58.47;93950.50;5090893;28;20422;-45
2021/06/03 07:12:33;;;;;;;4.18;2.20;;;;;;;15.39;57.42;93945.06;5090710;28;20564;-45
2021/06/03 07:14:59;;;;;;;3.13;1.63;;;;;;;15.61;57.81;93949.75;5090948;28;20020;-49
2021/06/03 07:17:24;;;;;;;2.85;2.15;;;;;;;15.86;56.40;93956.75;5091117;28;20024;-45
2021/06/03 07:19:49;;;;;;;2.25;2.03;;;;;;;15.88;56.64;93947.81;5090889;28;20023;-46
2021/06/03 07:22:15;;;;;;;2.78;2.03;;;;;;;16.00;55.51;93940.47;5091121;28;20073;-46
2021/06/03 07:24:41;;;;;;;9.65;2.25;;;;;;;16.30;54.97;93945.72;5090713;28;20040;-46
2021/06/03 07:27:06;;;;;;;2.88;2.38;;;;;;;16.52;54.49;93944.00;5091005;28;20541;-44
2021/06/03 07:29:32;;;;;;;3.00;2.35;;;;;;;16.94;52.14;93944.53;5090692;28;20015;-46
2021/06/03 07:31:57;;;;;;;2.13;1.65;;;;;;;16.87;51.31;93955.81;5090938;28;20024;-46
2021/06/03 07:34:23;;;;;;;5.95;2.33;;;;;;;16.83;50.84;93953.44;5089761;28;20533;-46
2021/06/03 07:36:48;;;;;;;1.75;1.50;;;;;;;16.66;53.02;93954.22;5070683;28;20028;-46
2021/06/03 07:39:14;;;;;;;7.20;1.92;;;;;;;16.61;53.02;93957.25;5070649;28;20081;-46
2021/06/03 07:41:40;;;;;;;7.28;3.55;;;;;;;16.50;52.06;93957.78;5070256;28;20025;-45
2021/06/03 07:44:05;;;;;;;5.78;3.97;;;;;;;16.44;52.47;93960.75;5070612;28;20029;-46
2021/06/03 07:46:32;;;;;;;2.75;1.45;;;;;;;16.28;53.41;93955.94;5070616;28;20492;-44
2021/06/03 07:48:58;;;;;;;3.22;2.90;;;;;;;15.99;54.79;93966.06;5070121;28;20028;-47
2021/06/03 07:51:23;;;;;;;15.65;8.02;;;;;;;15.84;55.75;93967.72;5070229;28;20032;-46
2021/06/03 07:53:49;;;;;;;14.95;7.13;;;;;;;15.91;54.32;93972.47;5068953;28;20016;-46
2021/06/03 07:56:15;;;;;;;3.92;3.47;;;;;;;15.75;53.81;93973.16;5070454;28;20036;-46
2021/06/03 07:58:41;;;;;;;4.45;2.90;;;;;;;15.74;53.30;93968.94;5070767;28;20093;-47
2021/06/03 08:01:06;;;;;;;2.60;2.40;;;;;;;15.69;52.63;93969.88;5070033;28;20480;-45
2021/06/03 08:03:32;;;;;;;3.30;2.22;;;;;;;15.75;52.70;93976.69;5069215;28;20438;-46
2021/06/03 08:05:57;;;;;;;2.30;1.95;;;;;;;15.79;51.97;93974.25;5069861;28;20094;-47
2021/06/03 08:08:22;;;;;;;5.32;2.65;;;;;;;15.80;49.62;93956.25;5082431;28;20093;-48
2021/06/03 08:10:49;;;;;;;3.22;2.65;;;;;;;16.29;51.14;93974.88;5090497;28;20399;-52
2021/06/03 08:13:15;;;;;;;6.70;3.28;;;;;;;16.52;51.35;93977.44;5090471;28;20020;-49
2021/06/03 08:15:43;;;;;;;3.63;2.80;;;;;;;16.75;48.61;93980.69;5090164;28;20062;-48
2021/06/03 08:18:09;;;;;;;4.97;3.50;;;;;;;17.08;47.39;93976.34;5090436;28;20032;-49
2021/06/03 08:20:41;;;;;;;3.10;1.98;;;;;;;17.97;47.80;93978.34;5092437;28;20032;-49
2021/06/03 08:23:08;;;;;;;1.85;1.75;;;;;;;19.27;44.07;93969.66;5094229;28;20016;-47
2021/06/03 08:25:33;;;;;;;2.97;2.22;;;;;;;20.00;38.71;93969.06;5094201;28;20081;-48
2021/06/03 08:27:59;;;;;;;2.97;1.90;;;;;;;20.67;38.40;93974.25;5094086;28;20024;-46
2021/06/03 08:30:25;;;;;;;9.52;5.55;;;;;;;21.39;39.20;93972.56;5094366;28;20024;-46
2021/06/03 08:32:51;;;;;;;3.45;2.45;;;;;;;21.62;37.95;93961.34;5094417;28;20081;-48
2021/06/03 08:35:20;;;;;;;2.17;1.75;;;;;;;22.18;36.75;93969.66;5085396;28;20450;-49
2021/06/03 08:37:47;;;;;;;1.37;1.27;;;;;;;22.61;35.37;93965.94;5073793;28;20647;-48
2021/06/03 08:40:16;;;;;;;4.07;1.80;;;;;;;23.07;33.78;93965.03;5074020;28;20385;-49
2021/06/03 08:42:43;;;;;;;1.20;1.10;;;;;;;23.23;31.82;93976.47;5073957;28;20095;-50
2021/06/03 08:45:12;;;;;;;3.90;2.05;;;;;;;23.05;33.18;93973.38;5073769;28;20024;-50
2021/06/03 08:47:37;;;;;;;3.03;1.83;;;;;;;22.55;34.33;93982.44;5073721;28;20013;-50
2021/06/03 08:50:04;;;;;;;2.30;1.80;;;;;;;21.95;35.19;93990.09;5073750;28;20462;-45
2021/06/03 08:52:30;;;;;;;5.32;1.88;;;;;;;21.54;36.09;93986.88;5073316;28;20025;-46
2021/06/03 08:54:57;;;;;;;5.85;4.47;;;;;;;21.14;39.05;93992.75;5073674;28;20074;-46
2021/06/03 08:57:23;;;;;;;2.67;2.47;;;;;;;21.42;37.91;93996.63;5073500;28;20036;-48
2021/06/03 08:59:49;;;;;;;1.77;1.40;;;;;;;20.90;36.06;93991.91;5073233;28;20114;-45
2021/06/03 09:02:14;;;;;;;4.07;2.75;;;;;;;20.89;38.88;93996.06;5073577;28;20096;-46
2021/06/03 09:04:43;;;;;;;3.15;2.00;;;;;;;21.67;36.32;93999.59;5073276;28;20103;-47
2021/06/03 09:07:27;;;;;;;1.73;1.60;;;;;;;22.24;35.14;93996.06;5075160;28;20083;-45
2021/06/03 09:09:53;;;;;;;3.58;1.75;;;;;;;21.82;36.22;93993.50;5093721;28;20477;-46
2021/06/03 09:12:19;;;;;;;1.83;1.63;;;;;;;21.33;38.48;93998.16;5093581;28;20024;-45
2021/06/03 09:14:44;;;;;;;1.70;1.60;;;;;;;20.76;38.50;93993.06;5093322;28;20426;-47
2021/06/03 09:17:10;;;;;;;1.65;1.45;;;;;;;20.87;39.51;93995.94;5093237;28;20056;-44
2021/06/03 09:19:50;;;;;;;1.27;1.17;;;;;;;20.93;37.91;93990.72;5093490;28;20028;-46
2021/06/03 09:22:38;;;;;;;1.40;1.30;;;;;;;21.03;38.98;94005.41;5093584;28;20028;-45
2021/06/03 09:25:28;;;;;;;3.47;1.92;;;;;;;21.50;38.04;93997.13;5093173;28;20028;-48
2021/06/03 09:27:54;;;;;;;3.63;1.80;;;;;;;22.06;34.40;93986.56;5093311;28;20086;-45
2021/06/03 09:30:19;;;;;;;1.48;1.38;;;;;;;22.28;35.72;93984.34;5093244;28;20483;-46
2021/06/03 09:32:54;;;;;;;1.83;1.30;;;;;;;22.22;35.51;93981.88;5092390;28;20399;-48
2021/06/03 09:35:20;;;;;;;2.47;1.38;;;;;;;22.39;36.20;93984.31;5092682;28;20052;-47
2021/06/03 09:37:45;;;;;;;2.75;2.55;;;;;;;22.57;35.02;93985.38;5093189;28;20016;-46
2021/06/03 09:40:21;;;;;;;6.50;4.18;;;;;;;22.58;35.59;93981.22;5093022;28;20480;-45
2021/06/03 09:43:10;;;;;;;38.47;16.85;;;;;;;22.68;36.21;93985.97;5093028;28;20051;-47
2021/06/03 09:46:01;;;;;;;10.02;5.38;;;;;;;22.91;35.75;93978.22;5092634;28;20510;-47
2021/06/03 09:48:54;;;;;;;23.00;11.32;;;;;;;22.66;35.36;93978.16;5092537;28;20020;-47
2021/06/03 09:51:28;;;;;;;4.78;2.50;;;;;;;22.09;33.52;93970.53;5090590;28;20119;-44
2021/06/03 09:53:54;;;;;;;12.35;4.88;;;;;;;22.60;33.91;93972.94;5092555;28;20035;-45
2021/06/03 09:56:25;;;;;;;24.30;12.40;;;;;;;23.14;33.89;93975.28;5092750;28;20031;-48
2021/06/03 09:58:50;;;;;;;17.63;7.55;;;;;;;23.20;34.24;93972.81;5092758;28;20024;-48
2021/06/03 10:01:38;;;;;;;86.35;37.22;;;;;;;23.01;34.88;93978.03;5092271;28;20415;-45
2021/06/03 10:04:05;;;;;;;3.63;3.30;;;;;;;22.85;35.26;93977.84;5092764;28;20020;-47
2021/06/03 10:06:30;;;;;;;165.48;66.40;;;;;;;22.78;34.15;93973.25;5092042;28;20051;-46
2021/06/03 10:08:56;;;;;;;9.40;6.45;;;;;;;22.59;34.37;93976.34;5091809;28;20094;-47
2021/06/03 10:11:48;;;;;;;5.03;2.08;;;;;;;22.58;33.96;93969.97;5092665;28;20035;-46
2021/06/03 10:14:16;;;;;;;86.78;33.03;;;;;;;22.93;34.18;93969.88;5092114;28;20031;-48
2021/06/03 10:16:42;;;;;;;23.08;8.52;;;;;;;23.16;34.85;93969.75;5075905;28;20119;-48
2021/06/03 10:19:18;;;;;;;65.50;27.85;;;;;;;23.59;33.66;93967.19;5072043;28;20036;-46
2021/06/03 10:21:45;;;;;;;16.13;8.95;;;;;;;23.34;34.14;93968.00;5071769;28;20036;-46
2021/06/03 10:24:11;;;;;;;3.40;2.28;;;;;;;23.67;33.78;93972.56;5070798;28;20032;-47
2021/06/03 10:26:56;;;;;;;33.55;15.35;;;;;;;24.21;32.98;93972.66;5071590;28;20028;-45
2021/06/03 10:29:21;;;;;;;15.85;7.93;;;;;;;24.16;32.15;93979.44;5071708;28;20518;-46
2021/06/03 10:31:47;;;;;;;3.03;2.17;;;;;;;24.45;30.93;93970.34;5071492;28;20055;-47
2021/06/03 10:34:13;;;;;;;27.55;13.18;;;;;;;24.22;30.42;93979.75;5071791;28;20025;-48
2021/06/03 10:36:38;;;;;;;3.95;3.10;;;;;;;23.86;29.41;93964.44;5091377;28;20061;-47
2021/06/03 10:39:05;;;;;;;11.05;7.18;;;;;;;24.27;31.45;93977.88;5091665;28;20031;-47
2021/06/03 10:41:30;;;;;;;5.28;3.67;;;;;;;24.19;33.29;93971.81;5091830;28;20036;-45
2021/06/03 10:43:57;;;;;;;2.35;1.42;;;;;;;24.56;31.21;93967.38;5090424;28;20024;-48
2021/06/03 10:46:23;;;;;;;5.03;3.72;;;;;;;24.27;31.76;93975.03;5090372;28;20032;-46
2021/06/03 10:48:49;;;;;;;3.83;2.50;;;;;;;24.36;31.33;93982.56;5091366;28;20085;-49
2021/06/03 10:51:14;;;;;;;4.10;2.65;;;;;;;23.84;30.91;93981.25;5091344;28;20028;-46
2021/06/03 10:53:45;;;;;;;5.75;3.47;;;;;;;23.54;32.22;93964.81;5090504;28;20020;-47
2021/06/03 10:56:16;;;;;;;66.53;29.10;;;;;;;23.34;32.07;93976.44;5091661;28;20051;-45
2021/06/03 10:58:43;;;;;;;38.08;16.67;;;;;;;23.25;34.82;93982.22;5091633;28;20020;-49
2021/06/03 11:01:11;;;;;;;51.47;18.85;;;;;;;23.07;33.29;93981.19;5091525;28;20035;-45
2021/06/03 11:03:57;;;;;;;15.90;7.47;;;;;;;22.89;35.16;93983.00;5091520;28;20085;-48
2021/06/03 11:06:25;;;;;;;9.52;4.55;;;;;;;23.00;34.88;93970.94;5090993;28;20506;-45
2021/06/03 11:09:10;;;;;;;3.03;2.37;;;;;;;22.86;34.47;93972.94;5090634;28;20020;-48
2021/06/03 11:11:44;;;;;;;1.70;1.60;;;;;;;22.30;34.95;93970.41;5090773;28;20047;-47
2021/06/03 11:14:16;;;;;;;1.77;1.05;;;;;;;22.25;33.04;93968.69;5091347;28;20030;-46
2021/06/03 11:16:48;;;;;;;1.50;1.40;;;;;;;22.05;34.86;93975.91;5091311;28;20028;-45
2021/06/03 11:19:14;;;;;;;3.63;1.70;;;;;;;21.73;34.83;93961.34;5090896;28;20020;-46
2021/06/03 11:21:43;;;;;;;2.83;2.03;;;;;;;21.70;35.33;93976.63;5090423;28;20026;-46
2021/06/03 11:24:34;;;;;;;2.03;1.80;;;;;;;21.74;35.18;93976.16;5091164;28;20036;-46
2021/06/03 11:27:10;;;;;;;2.75;1.77;;;;;;;21.91;37.60;93970.19;5090726;28;20035;-48
2021/06/03 11:29:41;;;;;;;1.48;1.25;;;;;;;22.17;37.36;93960.50;5090827;28;20036;-48
2021/06/03 11:32:07;;;;;;;4.75;1.42;;;;;;;22.67;36.33;93959.19;5091099;28;20035;-45
2021/06/03 11:34:38;;;;;;;3.20;1.83;;;;;;;22.79;34.20;93959.88;5088819;28;20107;-46
2021/06/03 11:37:09;;;;;;;1.23;1.10;;;;;;;22.58;34.96;93946.72;5070732;28;20028;-45
2021/06/03 11:39:38;;;;;;;3.65;2.38;;;;;;;22.19;34.81;93962.69;5070998;28;20028;-46
2021/06/03 11:42:33;;;;;;;2.30;1.80;;;;;;;22.04;35.32;93963.94;5070242;28;20063;-44